sensor_id;sensor_type;location;lat;lon;timestamp;P1;durP1;ratioP1;P2;durP2;ratioP2
50745;SDS011;36711;51.972;21.204;2023-06-22T00:01:39;16.70;;;11.50;;
50745;SDS011;36711;51.972;21.204;2023-06-22T00:04:08;12.50;;;10.00;;
50745;SDS011;36711;51.972;21.204;2023-06-22T00:06:37;13.10;;;11.50;;
50745;SDS011;36711;51.972;21.204;2023-06-22T00:09:05;15.30;;;12.80;;
50745;SDS011;36711;51.972;21.204;2023-06-22T00:11:36;17.90;;;13.20;;
50745;SDS011;36711;51.972;21.204;2023-06-22T00:14:05;14.30;;;11.70;;
50745;SDS011;36711;51.972;21.204;2023-06-22T00:16:34;13.00;;;11.10;;
50745;SDS011;36711;51.972;21.204;2023-06-22T00:19:03;14.50;;;11.80;;
50745;SDS011;36711;51.972;21.204;2023-06-22T00:21:32;14.50;;;12.50;;
50745;SDS011;36711;51.972;21.204;2023-06-22T00:24:01;16.10;;;13.30;;
50745;SDS011;36711;51.972;21.204;2023-06-22T00:26:31;17.20;;;12.10;;
50745;SDS011;36711;51.972;21.204;2023-06-22T00:28:59;13.40;;;11.30;;
50745;SDS011;36711;51.972;21.204;2023-06-22T00:31:28;11.70;;;10.40;;
50745;SDS011;36711;51.972;21.204;2023-06-22T00:33:57;13.70;;;11.30;;
50745;SDS011;36711;51.972;21.204;2023-06-22T00:36:26;17.40;;;13.60;;
50745;SDS011;36711;51.972;21.204;2023-06-22T00:38:56;17.00;;;13.90;;
50745;SDS011;36711;51.972;21.204;2023-06-22T00:41:26;16.10;;;13.90;;
50745;SDS011;36711;51.972;21.204;2023-06-22T00:43:57;13.40;;;11.40;;
50745;SDS011;36711;51.972;21.204;2023-06-22T00:46:26;11.90;;;10.70;;
50745;SDS011;36711;51.972;21.204;2023-06-22T00:48:54;13.70;;;10.80;;
50745;SDS011;36711;51.972;21.204;2023-06-22T00:51:25;14.80;;;12.10;;
50745;SDS011;36711;51.972;21.204;2023-06-22T00:53:55;14.00;;;11.50;;
50745;SDS011;36711;51.972;21.204;2023-06-22T00:56:24;14.10;;;12.00;;
50745;SDS011;36711;51.972;21.204;2023-06-22T00:58:53;15.90;;;12.10;;
50745;SDS011;36711;51.972;21.204;2023-06-22T01:01:22;14.40;;;9.60;;
50745;SDS011;36711;51.972;21.204;2023-06-22T01:03:51;13.70;;;11.50;;
50745;SDS011;36711;51.972;21.204;2023-06-22T01:06:22;13.70;;;12.20;;
50745;SDS011;36711;51.972;21.204;2023-06-22T01:09:04;16.30;;;12.40;;
50745;SDS011;36711;51.972;21.204;2023-06-22T01:11:36;12.90;;;10.00;;
50745;SDS011;36711;51.972;21.204;2023-06-22T01:14:09;13.60;;;11.50;;
50745;SDS011;36711;51.972;21.204;2023-06-22T01:16:40;15.60;;;10.60;;
50745;SDS011;36711;51.972;21.204;2023-06-22T01:21:58;12.30;;;11.00;;
50745;SDS011;36711;51.972;21.204;2023-06-22T01:24:33;13.10;;;11.50;;
50745;SDS011;36711;51.972;21.204;2023-06-22T01:29:51;11.50;;;10.10;;
50745;SDS011;36711;51.972;21.204;2023-06-22T01:32:21;12.50;;;10.70;;
50745;SDS011;36711;51.972;21.204;2023-06-22T01:34:50;11.00;;;9.60;;
50745;SDS011;36711;51.972;21.204;2023-06-22T01:37:19;10.70;;;8.60;;
50745;SDS011;36711;51.972;21.204;2023-06-22T01:39:48;13.90;;;11.50;;
50745;SDS011;36711;51.972;21.204;2023-06-22T01:42:17;15.50;;;11.90;;
50745;SDS011;36711;51.972;21.204;2023-06-22T01:44:46;13.20;;;11.50;;
50745;SDS011;36711;51.972;21.204;2023-06-22T01:47:15;11.40;;;10.10;;
50745;SDS011;36711;51.972;21.204;2023-06-22T01:49:44;11.90;;;9.70;;
50745;SDS011;36711;51.972;21.204;2023-06-22T01:52:13;12.50;;;11.20;;
50745;SDS011;36711;51.972;21.204;2023-06-22T01:54:42;18.30;;;14.60;;
50745;SDS011;36711;51.972;21.204;2023-06-22T01:57:11;14.80;;;12.20;;
50745;SDS011;36711;51.972;21.204;2023-06-22T02:02:16;18.10;;;11.40;;
50745;SDS011;36711;51.972;21.204;2023-06-22T02:04:48;15.50;;;11.90;;
50745;SDS011;36711;51.972;21.204;2023-06-22T02:07:19;14.50;;;12.40;;
50745;SDS011;36711;51.972;21.204;2023-06-22T02:09:50;16.20;;;13.40;;
50745;SDS011;36711;51.972;21.204;2023-06-22T02:12:21;21.10;;;14.00;;
50745;SDS011;36711;51.972;21.204;2023-06-22T02:14:51;16.60;;;14.40;;
50745;SDS011;36711;51.972;21.204;2023-06-22T02:17:20;15.80;;;12.80;;
50745;SDS011;36711;51.972;21.204;2023-06-22T02:19:49;17.80;;;12.40;;
50745;SDS011;36711;51.972;21.204;2023-06-22T02:22:18;15.40;;;13.10;;
50745;SDS011;36711;51.972;21.204;2023-06-22T02:24:47;14.00;;;12.30;;
50745;SDS011;36711;51.972;21.204;2023-06-22T02:27:16;18.70;;;14.80;;
50745;SDS011;36711;51.972;21.204;2023-06-22T02:29:45;17.50;;;15.00;;
50745;SDS011;36711;51.972;21.204;2023-06-22T02:32:13;21.30;;;13.20;;
50745;SDS011;36711;51.972;21.204;2023-06-22T02:34:43;16.30;;;12.60;;
50745;SDS011;36711;51.972;21.204;2023-06-22T02:37:16;16.80;;;12.80;;
50745;SDS011;36711;51.972;21.204;2023-06-22T02:39:45;16.60;;;13.20;;
50745;SDS011;36711;51.972;21.204;2023-06-22T02:42:14;18.30;;;14.40;;
50745;SDS011;36711;51.972;21.204;2023-06-22T02:44:43;20.90;;;15.20;;
50745;SDS011;36711;51.972;21.204;2023-06-22T02:47:12;17.10;;;12.50;;
50745;SDS011;36711;51.972;21.204;2023-06-22T02:49:41;15.10;;;12.50;;
50745;SDS011;36711;51.972;21.204;2023-06-22T02:52:10;16.40;;;13.70;;
50745;SDS011;36711;51.972;21.204;2023-06-22T02:54:39;17.60;;;14.70;;
50745;SDS011;36711;51.972;21.204;2023-06-22T02:57:08;18.10;;;14.90;;
50745;SDS011;36711;51.972;21.204;2023-06-22T02:59:42;17.90;;;13.90;;
50745;SDS011;36711;51.972;21.204;2023-06-22T03:02:11;15.30;;;12.10;;
50745;SDS011;36711;51.972;21.204;2023-06-22T03:04:40;15.50;;;13.00;;
50745;SDS011;36711;51.972;21.204;2023-06-22T03:07:09;18.00;;;13.60;;
50745;SDS011;36711;51.972;21.204;2023-06-22T03:09:37;19.00;;;14.90;;
50745;SDS011;36711;51.972;21.204;2023-06-22T03:12:06;22.20;;;15.70;;
50745;SDS011;36711;51.972;21.204;2023-06-22T03:14:35;18.80;;;16.10;;
50745;SDS011;36711;51.972;21.204;2023-06-22T03:17:04;15.80;;;14.00;;
50745;SDS011;36711;51.972;21.204;2023-06-22T03:19:33;17.20;;;13.10;;
50745;SDS011;36711;51.972;21.204;2023-06-22T03:22:03;15.30;;;12.40;;
50745;SDS011;36711;51.972;21.204;2023-06-22T03:24:32;15.80;;;13.40;;
50745;SDS011;36711;51.972;21.204;2023-06-22T03:27:03;21.80;;;15.60;;
50745;SDS011;36711;51.972;21.204;2023-06-22T03:29:34;20.50;;;15.70;;
50745;SDS011;36711;51.972;21.204;2023-06-22T03:32:03;18.40;;;13.80;;
50745;SDS011;36711;51.972;21.204;2023-06-22T03:34:34;14.80;;;12.90;;
50745;SDS011;36711;51.972;21.204;2023-06-22T03:37:04;14.40;;;12.80;;
50745;SDS011;36711;51.972;21.204;2023-06-22T03:39:33;18.10;;;14.60;;
50745;SDS011;36711;51.972;21.204;2023-06-22T03:42:02;21.90;;;16.30;;
50745;SDS011;36711;51.972;21.204;2023-06-22T03:44:31;22.40;;;16.60;;
50745;SDS011;36711;51.972;21.204;2023-06-22T03:47:00;23.10;;;15.30;;
50745;SDS011;36711;51.972;21.204;2023-06-22T03:49:30;18.00;;;14.40;;
50745;SDS011;36711;51.972;21.204;2023-06-22T03:52:00;16.50;;;14.60;;
50745;SDS011;36711;51.972;21.204;2023-06-22T03:54:29;18.90;;;16.30;;
50745;SDS011;36711;51.972;21.204;2023-06-22T03:56:58;30.00;;;18.40;;
50745;SDS011;36711;51.972;21.204;2023-06-22T03:59:27;26.90;;;19.20;;
50745;SDS011;36711;51.972;21.204;2023-06-22T04:01:56;23.90;;;16.80;;
50745;SDS011;36711;51.972;21.204;2023-06-22T04:04:25;20.30;;;15.20;;
50745;SDS011;36711;51.972;21.204;2023-06-22T04:06:54;24.80;;;18.40;;
50745;SDS011;36711;51.972;21.204;2023-06-22T04:09:23;29.00;;;20.30;;
50745;SDS011;36711;51.972;21.204;2023-06-22T04:11:52;30.00;;;20.30;;
50745;SDS011;36711;51.972;21.204;2023-06-22T04:14:21;25.50;;;17.20;;
50745;SDS011;36711;51.972;21.204;2023-06-22T04:16:49;23.90;;;15.70;;
50745;SDS011;36711;51.972;21.204;2023-06-22T04:19:18;26.10;;;15.90;;
50745;SDS011;36711;51.972;21.204;2023-06-22T04:21:47;27.20;;;18.70;;
50745;SDS011;36711;51.972;21.204;2023-06-22T04:24:17;28.80;;;21.10;;
50745;SDS011;36711;51.972;21.204;2023-06-22T04:26:46;33.70;;;21.80;;
50745;SDS011;36711;51.972;21.204;2023-06-22T04:29:15;26.70;;;17.70;;
50745;SDS011;36711;51.972;21.204;2023-06-22T04:31:44;23.70;;;16.30;;
50745;SDS011;36711;51.972;21.204;2023-06-22T04:34:13;28.70;;;16.50;;
50745;SDS011;36711;51.972;21.204;2023-06-22T04:36:45;27.50;;;18.90;;
50745;SDS011;36711;51.972;21.204;2023-06-22T04:39:14;29.80;;;21.00;;
50745;SDS011;36711;51.972;21.204;2023-06-22T04:41:43;30.70;;;22.40;;
50745;SDS011;36711;51.972;21.204;2023-06-22T04:46:41;21.70;;;15.60;;
50745;SDS011;36711;51.972;21.204;2023-06-22T04:49:10;22.80;;;16.20;;
50745;SDS011;36711;51.972;21.204;2023-06-22T04:51:40;27.10;;;19.90;;
50745;SDS011;36711;51.972;21.204;2023-06-22T04:54:10;32.10;;;22.30;;
50745;SDS011;36711;51.972;21.204;2023-06-22T04:56:39;30.40;;;21.40;;
50745;SDS011;36711;51.972;21.204;2023-06-22T04:59:09;25.40;;;18.80;;
50745;SDS011;36711;51.972;21.204;2023-06-22T05:01:41;25.30;;;15.90;;
50745;SDS011;36711;51.972;21.204;2023-06-22T05:04:10;30.00;;;20.70;;
50745;SDS011;36711;51.972;21.204;2023-06-22T05:06:40;32.50;;;22.30;;
50745;SDS011;36711;51.972;21.204;2023-06-22T05:09:09;31.80;;;22.40;;
50745;SDS011;36711;51.972;21.204;2023-06-22T05:11:37;27.60;;;19.10;;
50745;SDS011;36711;51.972;21.204;2023-06-22T05:14:06;23.30;;;15.40;;
50745;SDS011;36711;51.972;21.204;2023-06-22T05:16:36;26.20;;;16.50;;
50745;SDS011;36711;51.972;21.204;2023-06-22T05:19:05;29.20;;;20.10;;
50745;SDS011;36711;51.972;21.204;2023-06-22T05:21:34;31.00;;;21.40;;
50745;SDS011;36711;51.972;21.204;2023-06-22T05:24:03;27.50;;;20.90;;
50745;SDS011;36711;51.972;21.204;2023-06-22T05:26:33;28.00;;;20.60;;
50745;SDS011;36711;51.972;21.204;2023-06-22T05:29:02;24.30;;;17.10;;
50745;SDS011;36711;51.972;21.204;2023-06-22T05:31:31;20.40;;;14.10;;
50745;SDS011;36711;51.972;21.204;2023-06-22T05:34:00;28.30;;;19.30;;
50745;SDS011;36711;51.972;21.204;2023-06-22T05:36:29;31.20;;;20.60;;
50745;SDS011;36711;51.972;21.204;2023-06-22T05:38:58;30.10;;;19.80;;
50745;SDS011;36711;51.972;21.204;2023-06-22T05:41:27;24.70;;;17.40;;
50745;SDS011;36711;51.972;21.204;2023-06-22T05:43:56;21.40;;;14.90;;
50745;SDS011;36711;51.972;21.204;2023-06-22T05:46:25;23.30;;;18.50;;
50745;SDS011;36711;51.972;21.204;2023-06-22T05:48:54;25.60;;;19.90;;
50745;SDS011;36711;51.972;21.204;2023-06-22T05:51:23;28.40;;;19.80;;
50745;SDS011;36711;51.972;21.204;2023-06-22T05:53:52;24.70;;;19.10;;
50745;SDS011;36711;51.972;21.204;2023-06-22T05:56:20;25.40;;;17.20;;
50745;SDS011;36711;51.972;21.204;2023-06-22T05:58:49;20.80;;;14.20;;
50745;SDS011;36711;51.972;21.204;2023-06-22T06:01:18;23.40;;;17.60;;
50745;SDS011;36711;51.972;21.204;2023-06-22T06:03:47;25.50;;;19.50;;
50745;SDS011;36711;51.972;21.204;2023-06-22T06:06:18;24.30;;;18.20;;
50745;SDS011;36711;51.972;21.204;2023-06-22T06:08:49;24.80;;;19.10;;
50745;SDS011;36711;51.972;21.204;2023-06-22T06:11:18;22.10;;;16.00;;
50745;SDS011;36711;51.972;21.204;2023-06-22T06:13:47;18.20;;;13.50;;
50745;SDS011;36711;51.972;21.204;2023-06-22T06:16:16;26.60;;;18.90;;
50745;SDS011;36711;51.972;21.204;2023-06-22T06:18:45;26.90;;;18.60;;
50745;SDS011;36711;51.972;21.204;2023-06-22T06:21:14;25.00;;;19.00;;
50745;SDS011;36711;51.972;21.204;2023-06-22T06:23:43;25.80;;;18.60;;
50745;SDS011;36711;51.972;21.204;2023-06-22T06:26:12;22.50;;;16.30;;
50745;SDS011;36711;51.972;21.204;2023-06-22T06:28:41;18.40;;;12.70;;
50745;SDS011;36711;51.972;21.204;2023-06-22T06:31:10;23.40;;;13.60;;
50745;SDS011;36711;51.972;21.204;2023-06-22T06:33:41;22.50;;;17.20;;
50745;SDS011;36711;51.972;21.204;2023-06-22T06:36:10;23.70;;;17.40;;
50745;SDS011;36711;51.972;21.204;2023-06-22T06:38:39;27.40;;;18.10;;
50745;SDS011;36711;51.972;21.204;2023-06-22T06:41:07;28.30;;;17.40;;
50745;SDS011;36711;51.972;21.204;2023-06-22T06:43:36;22.80;;;14.60;;
50745;SDS011;36711;51.972;21.204;2023-06-22T06:46:05;16.30;;;12.10;;
50745;SDS011;36711;51.972;21.204;2023-06-22T06:48:34;19.10;;;15.60;;
50745;SDS011;36711;51.972;21.204;2023-06-22T06:51:03;23.70;;;16.00;;
50745;SDS011;36711;51.972;21.204;2023-06-22T06:53:32;24.00;;;17.00;;
50745;SDS011;36711;51.972;21.204;2023-06-22T06:56:01;23.70;;;17.50;;
50745;SDS011;36711;51.972;21.204;2023-06-22T06:58:31;23.20;;;17.40;;
50745;SDS011;36711;51.972;21.204;2023-06-22T07:00:59;18.60;;;13.50;;
50745;SDS011;36711;51.972;21.204;2023-06-22T07:03:28;15.20;;;12.00;;
50745;SDS011;36711;51.972;21.204;2023-06-22T07:05:57;19.90;;;15.70;;
50745;SDS011;36711;51.972;21.204;2023-06-22T07:08:26;21.90;;;16.80;;
50745;SDS011;36711;51.972;21.204;2023-06-22T07:10:55;20.80;;;16.70;;
50745;SDS011;36711;51.972;21.204;2023-06-22T07:13:24;21.00;;;16.70;;
50745;SDS011;36711;51.972;21.204;2023-06-22T07:15:53;17.30;;;15.40;;
50745;SDS011;36711;51.972;21.204;2023-06-22T07:18:23;16.30;;;13.60;;
50745;SDS011;36711;51.972;21.204;2023-06-22T07:20:52;14.70;;;12.10;;
50745;SDS011;36711;51.972;21.204;2023-06-22T07:23:21;17.90;;;14.00;;
50745;SDS011;36711;51.972;21.204;2023-06-22T07:25:50;21.00;;;13.90;;
50745;SDS011;36711;51.972;21.204;2023-06-22T07:28:19;18.90;;;14.90;;
50745;SDS011;36711;51.972;21.204;2023-06-22T07:30:48;16.70;;;12.90;;
50745;SDS011;36711;51.972;21.204;2023-06-22T07:33:17;13.30;;;11.80;;
50745;SDS011;36711;51.972;21.204;2023-06-22T07:35:46;17.60;;;12.70;;
50745;SDS011;36711;51.972;21.204;2023-06-22T07:38:16;20.00;;;12.40;;
50745;SDS011;36711;51.972;21.204;2023-06-22T07:40:45;15.30;;;12.10;;
50745;SDS011;36711;51.972;21.204;2023-06-22T07:43:14;15.40;;;12.30;;
50745;SDS011;36711;51.972;21.204;2023-06-22T07:45:48;17.40;;;12.10;;
50745;SDS011;36711;51.972;21.204;2023-06-22T07:48:20;15.50;;;11.50;;
50745;SDS011;36711;51.972;21.204;2023-06-22T07:50:50;13.60;;;10.70;;
50745;SDS011;36711;51.972;21.204;2023-06-22T07:53:20;14.10;;;11.20;;
50745;SDS011;36711;51.972;21.204;2023-06-22T07:55:49;14.30;;;10.00;;
50745;SDS011;36711;51.972;21.204;2023-06-22T07:58:18;10.60;;;8.60;;
50745;SDS011;36711;51.972;21.204;2023-06-22T08:00:49;8.30;;;7.00;;
50745;SDS011;36711;51.972;21.204;2023-06-22T08:03:18;10.20;;;8.10;;
50745;SDS011;36711;51.972;21.204;2023-06-22T08:05:47;12.50;;;8.50;;
50745;SDS011;36711;51.972;21.204;2023-06-22T08:08:17;12.60;;;8.10;;
50745;SDS011;36711;51.972;21.204;2023-06-22T08:10:46;10.10;;;7.30;;
50745;SDS011;36711;51.972;21.204;2023-06-22T08:13:15;13.00;;;8.00;;
50745;SDS011;36711;51.972;21.204;2023-06-22T08:15:44;8.90;;;7.30;;
50745;SDS011;36711;51.972;21.204;2023-06-22T08:18:14;10.30;;;6.70;;
50745;SDS011;36711;51.972;21.204;2023-06-22T08:20:43;6.40;;;5.60;;
50745;SDS011;36711;51.972;21.204;2023-06-22T08:23:12;6.00;;;5.40;;
50745;SDS011;36711;51.972;21.204;2023-06-22T08:25:40;6.30;;;5.60;;
50745;SDS011;36711;51.972;21.204;2023-06-22T08:28:09;6.20;;;4.60;;
50745;SDS011;36711;51.972;21.204;2023-06-22T08:30:38;7.40;;;4.50;;
50745;SDS011;36711;51.972;21.204;2023-06-22T08:33:07;7.10;;;4.30;;
50745;SDS011;36711;51.972;21.204;2023-06-22T08:35:36;5.80;;;4.30;;
50745;SDS011;36711;51.972;21.204;2023-06-22T08:38:05;4.70;;;3.90;;
50745;SDS011;36711;51.972;21.204;2023-06-22T08:40:34;7.80;;;4.00;;
50745;SDS011;36711;51.972;21.204;2023-06-22T08:43:03;4.10;;;3.30;;
50745;SDS011;36711;51.972;21.204;2023-06-22T08:45:32;5.60;;;3.10;;
50745;SDS011;36711;51.972;21.204;2023-06-22T08:48:01;5.00;;;3.50;;
50745;SDS011;36711;51.972;21.204;2023-06-22T08:50:30;6.60;;;3.40;;
50745;SDS011;36711;51.972;21.204;2023-06-22T08:52:59;6.50;;;3.40;;
50745;SDS011;36711;51.972;21.204;2023-06-22T08:55:28;4.20;;;3.80;;
50745;SDS011;36711;51.972;21.204;2023-06-22T08:57:58;4.60;;;3.10;;
50745;SDS011;36711;51.972;21.204;2023-06-22T09:00:26;5.80;;;3.30;;
50745;SDS011;36711;51.972;21.204;2023-06-22T09:02:57;6.10;;;2.60;;
50745;SDS011;36711;51.972;21.204;2023-06-22T09:05:28;3.40;;;2.90;;
50745;SDS011;36711;51.972;21.204;2023-06-22T09:07:57;4.00;;;2.70;;
50745;SDS011;36711;51.972;21.204;2023-06-22T09:10:27;5.80;;;3.50;;
50745;SDS011;36711;51.972;21.204;2023-06-22T09:12:57;3.10;;;2.80;;
50745;SDS011;36711;51.972;21.204;2023-06-22T09:15:26;9.60;;;3.00;;
50745;SDS011;36711;51.972;21.204;2023-06-22T09:17:55;3.90;;;2.60;;
50745;SDS011;36711;51.972;21.204;2023-06-22T09:20:25;5.90;;;2.60;;
50745;SDS011;36711;51.972;21.204;2023-06-22T09:22:55;3.70;;;2.90;;
50745;SDS011;36711;51.972;21.204;2023-06-22T09:25:24;5.10;;;2.60;;
50745;SDS011;36711;51.972;21.204;2023-06-22T09:27:53;5.30;;;2.30;;
50745;SDS011;36711;51.972;21.204;2023-06-22T09:30:22;4.70;;;2.50;;
50745;SDS011;36711;51.972;21.204;2023-06-22T09:32:50;4.50;;;2.00;;
50745;SDS011;36711;51.972;21.204;2023-06-22T09:35:19;7.00;;;1.80;;
50745;SDS011;36711;51.972;21.204;2023-06-22T09:37:48;4.10;;;2.10;;
50745;SDS011;36711;51.972;21.204;2023-06-22T09:40:17;4.30;;;1.60;;
50745;SDS011;36711;51.972;21.204;2023-06-22T09:42:46;3.30;;;1.80;;
50745;SDS011;36711;51.972;21.204;2023-06-22T09:45:15;4.80;;;1.80;;
50745;SDS011;36711;51.972;21.204;2023-06-22T09:47:44;4.60;;;1.70;;
50745;SDS011;36711;51.972;21.204;2023-06-22T09:50:13;2.50;;;1.30;;
50745;SDS011;36711;51.972;21.204;2023-06-22T09:52:42;1.60;;;1.20;;
50745;SDS011;36711;51.972;21.204;2023-06-22T09:55:16;1.30;;;1.00;;
50745;SDS011;36711;51.972;21.204;2023-06-22T09:57:45;3.50;;;1.10;;
50745;SDS011;36711;51.972;21.204;2023-06-22T10:00:15;2.50;;;1.00;;
50745;SDS011;36711;51.972;21.204;2023-06-22T10:02:44;2.60;;;0.90;;
50745;SDS011;36711;51.972;21.204;2023-06-22T10:05:13;1.00;;;0.90;;
50745;SDS011;36711;51.972;21.204;2023-06-22T10:07:42;3.00;;;1.20;;
50745;SDS011;36711;51.972;21.204;2023-06-22T10:10:13;1.70;;;1.10;;
50745;SDS011;36711;51.972;21.204;2023-06-22T10:12:43;6.00;;;1.00;;
50745;SDS011;36711;51.972;21.204;2023-06-22T10:15:13;1.40;;;1.00;;
50745;SDS011;36711;51.972;21.204;2023-06-22T10:20:11;0.90;;;0.80;;
50745;SDS011;36711;51.972;21.204;2023-06-22T10:22:41;1.70;;;0.90;;
50745;SDS011;36711;51.972;21.204;2023-06-22T10:25:11;1.10;;;1.10;;
50745;SDS011;36711;51.972;21.204;2023-06-22T10:27:40;2.00;;;1.10;;
50745;SDS011;36711;51.972;21.204;2023-06-22T10:30:09;1.30;;;1.20;;
50745;SDS011;36711;51.972;21.204;2023-06-22T10:32:42;2.60;;;1.40;;
50745;SDS011;36711;51.972;21.204;2023-06-22T10:35:14;1.30;;;1.20;;
50745;SDS011;36711;51.972;21.204;2023-06-22T10:37:45;4.60;;;1.30;;
50745;SDS011;36711;51.972;21.204;2023-06-22T10:40:15;4.90;;;1.10;;
50745;SDS011;36711;51.972;21.204;2023-06-22T10:42:44;1.60;;;1.20;;
50745;SDS011;36711;51.972;21.204;2023-06-22T10:45:13;3.00;;;1.10;;
50745;SDS011;36711;51.972;21.204;2023-06-22T10:47:43;3.20;;;1.00;;
50745;SDS011;36711;51.972;21.204;2023-06-22T10:50:12;1.10;;;1.00;;
50745;SDS011;36711;51.972;21.204;2023-06-22T10:52:41;3.80;;;1.30;;
50745;SDS011;36711;51.972;21.204;2023-06-22T10:55:10;1.40;;;1.20;;
50745;SDS011;36711;51.972;21.204;2023-06-22T10:57:39;2.40;;;1.10;;
50745;SDS011;36711;51.972;21.204;2023-06-22T11:00:13;1.80;;;1.00;;
50745;SDS011;36711;51.972;21.204;2023-06-22T11:02:42;1.10;;;0.80;;
50745;SDS011;36711;51.972;21.204;2023-06-22T11:05:11;2.20;;;1.10;;
50745;SDS011;36711;51.972;21.204;2023-06-22T11:07:43;3.90;;;1.60;;
50745;SDS011;36711;51.972;21.204;2023-06-22T11:10:17;4.80;;;1.40;;
50745;SDS011;36711;51.972;21.204;2023-06-22T11:12:46;1.00;;;1.00;;
50745;SDS011;36711;51.972;21.204;2023-06-22T11:15:15;1.20;;;1.10;;
50745;SDS011;36711;51.972;21.204;2023-06-22T11:17:44;3.50;;;1.10;;
50745;SDS011;36711;51.972;21.204;2023-06-22T11:20:13;3.50;;;1.10;;
50745;SDS011;36711;51.972;21.204;2023-06-22T11:22:42;1.40;;;1.10;;
50745;SDS011;36711;51.972;21.204;2023-06-22T11:25:11;3.50;;;1.20;;
50745;SDS011;36711;51.972;21.204;2023-06-22T11:27:41;1.40;;;1.30;;
50745;SDS011;36711;51.972;21.204;2023-06-22T11:30:11;1.60;;;1.00;;
50745;SDS011;36711;51.972;21.204;2023-06-22T11:32:40;2.70;;;0.90;;
50745;SDS011;36711;51.972;21.204;2023-06-22T11:35:09;2.80;;;1.20;;
50745;SDS011;36711;51.972;21.204;2023-06-22T11:37:38;2.90;;;1.00;;
50745;SDS011;36711;51.972;21.204;2023-06-22T11:40:10;1.40;;;1.30;;
50745;SDS011;36711;51.972;21.204;2023-06-22T11:42:39;1.50;;;1.00;;
50745;SDS011;36711;51.972;21.204;2023-06-22T11:45:08;2.00;;;1.20;;
50745;SDS011;36711;51.972;21.204;2023-06-22T11:47:37;3.70;;;1.20;;
50745;SDS011;36711;51.972;21.204;2023-06-22T11:50:08;2.00;;;1.10;;
50745;SDS011;36711;51.972;21.204;2023-06-22T11:52:38;5.20;;;1.20;;
50745;SDS011;36711;51.972;21.204;2023-06-22T11:55:07;1.50;;;1.30;;
50745;SDS011;36711;51.972;21.204;2023-06-22T11:57:37;1.90;;;1.20;;
50745;SDS011;36711;51.972;21.204;2023-06-22T12:00:06;1.40;;;1.30;;
50745;SDS011;36711;51.972;21.204;2023-06-22T12:02:43;2.50;;;1.10;;
50745;SDS011;36711;51.972;21.204;2023-06-22T12:05:12;3.40;;;1.20;;
50745;SDS011;36711;51.972;21.204;2023-06-22T12:07:41;2.00;;;1.30;;
50745;SDS011;36711;51.972;21.204;2023-06-22T12:10:10;4.10;;;1.40;;
50745;SDS011;36711;51.972;21.204;2023-06-22T12:12:39;2.60;;;1.40;;
50745;SDS011;36711;51.972;21.204;2023-06-22T12:15:09;3.40;;;1.50;;
50745;SDS011;36711;51.972;21.204;2023-06-22T12:17:37;2.20;;;1.60;;
50745;SDS011;36711;51.972;21.204;2023-06-22T12:20:07;2.60;;;1.30;;
50745;SDS011;36711;51.972;21.204;2023-06-22T12:22:36;2.80;;;1.30;;
50745;SDS011;36711;51.972;21.204;2023-06-22T12:25:06;3.90;;;1.30;;
50745;SDS011;36711;51.972;21.204;2023-06-22T12:27:36;4.60;;;1.30;;
50745;SDS011;36711;51.972;21.204;2023-06-22T12:30:05;2.50;;;1.40;;
50745;SDS011;36711;51.972;21.204;2023-06-22T12:32:34;5.90;;;1.50;;
50745;SDS011;36711;51.972;21.204;2023-06-22T12:35:03;4.30;;;1.60;;
50745;SDS011;36711;51.972;21.204;2023-06-22T12:37:32;2.40;;;1.40;;
50745;SDS011;36711;51.972;21.204;2023-06-22T12:40:02;2.10;;;1.60;;
50745;SDS011;36711;51.972;21.204;2023-06-22T12:42:32;5.00;;;1.50;;
50745;SDS011;36711;51.972;21.204;2023-06-22T12:45:01;5.60;;;1.80;;
50745;SDS011;36711;51.972;21.204;2023-06-22T12:47:30;6.70;;;1.90;;
50745;SDS011;36711;51.972;21.204;2023-06-22T12:49:59;2.40;;;1.60;;
50745;SDS011;36711;51.972;21.204;2023-06-22T12:52:29;2.50;;;1.60;;
50745;SDS011;36711;51.972;21.204;2023-06-22T12:54:58;2.50;;;1.90;;
50745;SDS011;36711;51.972;21.204;2023-06-22T12:57:27;2.60;;;1.80;;
50745;SDS011;36711;51.972;21.204;2023-06-22T12:59:56;4.40;;;1.80;;
50745;SDS011;36711;51.972;21.204;2023-06-22T13:04:56;5.00;;;2.10;;
50745;SDS011;36711;51.972;21.204;2023-06-22T13:07:25;2.10;;;1.70;;
50745;SDS011;36711;51.972;21.204;2023-06-22T13:09:54;4.30;;;1.80;;
50745;SDS011;36711;51.972;21.204;2023-06-22T13:12:23;3.20;;;1.50;;
50745;SDS011;36711;51.972;21.204;2023-06-22T13:14:52;2.20;;;1.90;;
50745;SDS011;36711;51.972;21.204;2023-06-22T13:17:21;3.50;;;1.80;;
50745;SDS011;36711;51.972;21.204;2023-06-22T13:19:50;1.80;;;1.60;;
50745;SDS011;36711;51.972;21.204;2023-06-22T13:22:26;3.30;;;1.80;;
50745;SDS011;36711;51.972;21.204;2023-06-22T13:24:57;2.10;;;1.90;;
50745;SDS011;36711;51.972;21.204;2023-06-22T13:27:26;2.40;;;1.80;;
50745;SDS011;36711;51.972;21.204;2023-06-22T13:29:55;2.60;;;1.90;;
50745;SDS011;36711;51.972;21.204;2023-06-22T13:32:23;5.00;;;1.90;;
50745;SDS011;36711;51.972;21.204;2023-06-22T13:34:53;3.50;;;1.80;;
50745;SDS011;36711;51.972;21.204;2023-06-22T13:37:22;4.70;;;1.90;;
50745;SDS011;36711;51.972;21.204;2023-06-22T13:39:51;5.50;;;2.20;;
50745;SDS011;36711;51.972;21.204;2023-06-22T13:42:20;2.70;;;1.90;;
50745;SDS011;36711;51.972;21.204;2023-06-22T13:44:49;2.60;;;1.50;;
50745;SDS011;36711;51.972;21.204;2023-06-22T13:47:18;3.70;;;2.00;;
50745;SDS011;36711;51.972;21.204;2023-06-22T13:49:46;2.90;;;1.80;;
50745;SDS011;36711;51.972;21.204;2023-06-22T13:52:15;4.50;;;2.00;;
50745;SDS011;36711;51.972;21.204;2023-06-22T13:54:44;4.40;;;2.10;;
50745;SDS011;36711;51.972;21.204;2023-06-22T13:57:13;4.40;;;2.10;;
50745;SDS011;36711;51.972;21.204;2023-06-22T13:59:42;3.30;;;1.90;;
50745;SDS011;36711;51.972;21.204;2023-06-22T14:02:11;1.80;;;1.70;;
50745;SDS011;36711;51.972;21.204;2023-06-22T14:04:40;2.40;;;1.90;;
50745;SDS011;36711;51.972;21.204;2023-06-22T14:07:09;4.40;;;1.80;;
50745;SDS011;36711;51.972;21.204;2023-06-22T14:09:38;2.70;;;1.80;;
50745;SDS011;36711;51.972;21.204;2023-06-22T14:12:06;2.80;;;1.70;;
50745;SDS011;36711;51.972;21.204;2023-06-22T14:14:36;5.20;;;1.90;;
50745;SDS011;36711;51.972;21.204;2023-06-22T14:17:05;4.60;;;2.00;;
50745;SDS011;36711;51.972;21.204;2023-06-22T14:19:34;5.20;;;1.90;;
50745;SDS011;36711;51.972;21.204;2023-06-22T14:22:03;4.50;;;2.10;;
50745;SDS011;36711;51.972;21.204;2023-06-22T14:24:32;3.20;;;2.10;;
50745;SDS011;36711;51.972;21.204;2023-06-22T14:27:01;4.30;;;2.40;;
50745;SDS011;36711;51.972;21.204;2023-06-22T14:29:32;2.70;;;2.00;;
50745;SDS011;36711;51.972;21.204;2023-06-22T14:32:01;2.80;;;2.00;;
50745;SDS011;36711;51.972;21.204;2023-06-22T14:34:30;4.30;;;2.00;;
50745;SDS011;36711;51.972;21.204;2023-06-22T14:36:58;2.10;;;1.90;;
50745;SDS011;36711;51.972;21.204;2023-06-22T14:39:27;4.90;;;2.00;;
50745;SDS011;36711;51.972;21.204;2023-06-22T14:41:56;2.10;;;1.70;;
50745;SDS011;36711;51.972;21.204;2023-06-22T14:44:25;5.80;;;2.00;;
50745;SDS011;36711;51.972;21.204;2023-06-22T14:46:54;7.60;;;1.90;;
50745;SDS011;36711;51.972;21.204;2023-06-22T14:49:23;4.20;;;1.90;;